Time;durP1;ratioP1;P1;durP2;ratioP2;P2;SDS_P1;SDS_P2;PMS_P1;PMS_P2;Temp;Humidity;BMP_temperature;BMP_pressure;BME280_temperature;BME280_humidity;BME280_pressure;Samples;Min_cycle;Max_cycle;Signal;HPM_P1;HPM_P2
2022/04/08 00:01:38;;;;;;;0.80;0.40;;;;;;;9.29;94.67;93833.16;4322530;32;20216;-60
2022/04/08 00:04:06;;;;;;;1.33;0.30;;;;;;;9.24;94.78;93861.66;4354331;32;20273;-58
2022/04/08 00:06:37;;;;;;;0.30;0.30;;;;;;;9.16;94.92;93854.53;4356608;32;20316;-60
2022/04/08 00:09:03;;;;;;;1.10;0.30;;;;;;;9.21;94.06;93862.28;4340129;32;20339;-58
2022/04/08 00:11:30;;;;;;;0.40;0.10;;;;;;;9.26;94.58;93864.75;4332030;32;20374;-59
2022/04/08 00:13:57;;;;;;;0.27;0.27;;;;;;;9.13;95.62;93865.78;4340489;32;20299;-58
2022/04/08 00:16:23;;;;;;;1.13;0.33;;;;;;;9.13;96.26;93871.06;4348058;32;20285;-60
2022/04/08 00:18:52;;;;;;;1.23;0.40;;;;;;;9.11;96.33;93862.69;4319475;32;20321;-60
2022/04/08 00:21:20;;;;;;;0.30;0.23;;;;;;;9.22;96.73;93885.00;4346909;32;20193;-59
2022/04/08 00:23:46;;;;;;;0.30;0.20;;;;;;;9.16;97.72;93871.19;4329774;32;20295;-59
2022/04/08 00:26:13;;;;;;;2.80;0.30;;;;;;;9.20;97.50;93880.03;4290748;33;20306;-59
2022/04/08 00:28:43;;;;;;;0.33;0.20;;;;;;;9.22;97.41;93869.12;4337868;32;20327;-59
2022/04/08 00:31:09;;;;;;;0.50;0.37;;;;;;;9.20;97.40;93863.38;4350413;32;20296;-60
2022/04/08 00:33:34;;;;;;;0.20;0.20;;;;;;;9.09;96.31;93865.63;4339968;32;20299;-59
2022/04/08 00:36:04;;;;;;;0.37;0.37;;;;;;;9.11;96.46;93860.81;4328713;32;20288;-59
2022/04/08 00:38:32;;;;;;;3.40;0.40;;;;;;;9.18;95.69;93874.28;4317059;32;20268;-59
2022/04/08 00:40:59;;;;;;;0.20;0.20;;;;;;;9.13;95.86;93869.19;4318707;32;20281;-60
2022/04/08 00:43:37;;;;;;;0.70;0.20;;;;;;;9.20;96.14;93860.75;4339125;32;20342;-59
2022/04/08 00:46:11;;;;;;;0.20;0.20;;;;;;;9.05;95.59;93854.12;4333436;32;20321;-59
2022/04/08 00:48:39;;;;;;;1.13;0.43;;;;;;;9.05;96.32;93862.06;4358672;32;20304;-59
2022/04/08 00:51:06;;;;;;;0.40;0.40;;;;;;;9.13;96.23;93869.19;4352910;32;20273;-59
2022/04/08 00:53:32;;;;;;;0.30;0.30;;;;;;;8.96;96.68;93874.56;4333500;32;20298;-59
2022/04/08 00:56:08;;;;;;;0.30;0.30;;;;;;;9.00;95.43;93895.84;4331232;32;20284;-59
2022/04/08 00:58:35;;;;;;;0.47;0.40;;;;;;;9.01;95.35;93900.06;4354941;32;20359;-59
2022/04/08 01:01:04;;;;;;;0.53;0.40;;;;;;;9.08;93.81;93873.91;4340694;32;20289;-58
2022/04/08 01:03:30;;;;;;;0.47;0.37;;;;;;;9.04;92.96;93886.97;4341962;32;20360;-58
2022/04/08 01:05:57;;;;;;;0.90;0.50;;;;;;;8.91;91.80;93896.69;4341334;32;20327;-58
2022/04/08 01:08:26;;;;;;;1.10;0.57;;;;;;;9.08;91.55;93897.69;4366712;32;20284;-59
2022/04/08 01:10:54;;;;;;;0.50;0.30;;;;;;;8.94;92.76;93901.31;4332764;32;20317;-58
2022/04/08 01:13:23;;;;;;;0.47;0.33;;;;;;;8.86;93.64;93907.44;4353928;32;20282;-58
2022/04/08 01:15:50;;;;;;;0.77;0.40;;;;;;;8.83;93.41;93917.88;4356965;32;20281;-58
2022/04/08 01:18:16;;;;;;;2.23;0.60;;;;;;;8.86;93.96;93899.50;4311184;32;20357;-58
2022/04/08 01:20:43;;;;;;;0.40;0.40;;;;;;;8.68;94.27;93923.66;4326238;32;20348;-58
2022/04/08 01:23:09;;;;;;;0.33;0.30;;;;;;;8.72;94.73;93904.22;4350646;32;20359;-57
2022/04/08 01:25:37;;;;;;;1.13;0.60;;;;;;;8.70;95.49;93911.69;4314246;33;20291;-58
2022/04/08 01:28:04;;;;;;;1.67;0.50;;;;;;;8.68;96.88;93916.50;4306955;32;20418;-58
2022/04/08 01:30:30;;;;;;;0.40;0.33;;;;;;;8.52;97.00;93931.34;4284325;32;20279;-58
2022/04/08 01:32:56;;;;;;;0.70;0.50;;;;;;;8.50;97.78;93941.44;4330465;32;20279;-58
2022/04/08 01:35:22;;;;;;;0.70;0.40;;;;;;;8.56;97.27;93953.38;4322156;32;20293;-62
2022/04/08 01:37:50;;;;;;;0.50;0.50;;;;;;;8.62;96.31;93957.41;4352176;32;20181;-59
2022/04/08 01:40:20;;;;;;;1.43;0.50;;;;;;;8.54;96.25;93939.69;4345999;32;20277;-59
2022/04/08 01:42:46;;;;;;;1.70;0.50;;;;;;;8.64;95.75;93954.47;4306518;32;20285;-59
2022/04/08 01:45:13;;;;;;;0.43;0.40;;;;;;;8.50;96.83;93950.16;4341480;32;20366;-59
2022/04/08 01:47:40;;;;;;;0.93;0.60;;;;;;;8.63;96.16;93958.97;4328467;32;20189;-59
2022/04/08 01:50:08;;;;;;;1.00;0.50;;;;;;;8.58;95.67;93953.84;4310475;33;20279;-59
2022/04/08 01:52:35;;;;;;;2.77;0.77;;;;;;;8.70;94.39;93959.28;4347781;32;20281;-58
2022/04/08 01:55:01;;;;;;;2.30;0.50;;;;;;;8.76;94.75;93984.44;4332844;33;20274;-58
2022/04/08 01:57:29;;;;;;;0.67;0.67;;;;;;;8.73;94.29;93977.13;4324316;32;20281;-58
2022/04/08 01:59:54;;;;;;;1.90;0.93;;;;;;;8.65;95.17;93980.59;4342647;32;20197;-60
2022/04/08 02:02:20;;;;;;;2.73;0.80;;;;;;;8.63;94.93;93972.19;4337187;32;20381;-59
2022/04/08 02:04:48;;;;;;;1.60;0.70;;;;;;;8.61;94.88;93984.94;4341952;32;20260;-59
2022/04/08 02:07:15;;;;;;;1.53;0.77;;;;;;;8.50;95.65;94004.88;4355794;32;20207;-58
2022/04/08 02:09:42;;;;;;;2.77;0.60;;;;;;;8.57;95.70;93999.88;4344669;32;20368;-59
2022/04/08 02:12:08;;;;;;;1.60;0.70;;;;;;;8.52;96.15;93992.88;4305907;32;20298;-59
2022/04/08 02:14:45;;;;;;;1.10;0.67;;;;;;;8.54;96.53;93995.97;4341543;32;20328;-59
2022/04/08 02:17:12;;;;;;;1.27;1.10;;;;;;;8.65;96.69;93996.44;4324692;32;20330;-59
2022/04/08 02:19:41;;;;;;;3.10;1.37;;;;;;;8.59;96.85;93998.47;4332618;32;20314;-59
2022/04/08 02:22:08;;;;;;;5.20;1.73;;;;;;;8.57;95.27;94011.22;4343920;32;20400;-59
2022/04/08 02:24:34;;;;;;;3.63;1.33;;;;;;;8.32;94.70;94021.75;4357052;32;20348;-59
2022/04/08 02:27:06;;;;;;;4.60;1.20;;;;;;;8.42;94.80;94016.22;4335546;32;20277;-58
2022/04/08 02:29:46;;;;;;;1.60;1.10;;;;;;;8.47;94.47;94024.75;4361491;32;20220;-58
2022/04/08 02:32:11;;;;;;;1.93;1.40;;;;;;;8.35;95.72;94023.81;4347477;32;20367;-57
2022/04/08 02:34:38;;;;;;;6.50;1.77;;;;;;;8.30;96.32;94027.38;4340549;32;20278;-60
2022/04/08 02:37:10;;;;;;;3.57;1.57;;;;;;;8.22;95.91;94036.84;4347228;32;20248;-59
2022/04/08 02:39:37;;;;;;;4.27;1.30;;;;;;;8.41;96.31;94031.28;4361695;32;20276;-59
2022/04/08 02:42:04;;;;;;;4.23;1.23;;;;;;;8.31;96.92;94036.84;4361066;32;20290;-58
2022/04/08 02:44:31;;;;;;;5.13;2.73;;;;;;;8.40;96.32;94034.22;4317193;32;20300;-59
2022/04/08 02:46:58;;;;;;;4.10;1.40;;;;;;;8.35;96.21;94044.94;4347809;32;20274;-59
2022/04/08 02:49:23;;;;;;;3.23;0.90;;;;;;;8.38;96.59;94033.75;4324531;32;20341;-64
2022/04/08 02:51:49;;;;;;;2.17;1.30;;;;;;;8.15;97.09;94038.38;4317481;32;20323;-59
2022/04/08 02:54:16;;;;;;;3.17;1.07;;;;;;;8.24;98.15;94042.59;4343439;32;20200;-60
2022/04/08 02:56:42;;;;;;;5.27;1.60;;;;;;;8.41;97.62;94035.78;4340749;32;20379;-59
2022/04/08 02:59:09;;;;;;;4.40;1.37;;;;;;;8.48;96.03;94026.31;4301092;32;20270;-59
2022/04/08 03:01:34;;;;;;;6.30;1.43;;;;;;;8.40;95.86;94018.37;4343339;32;20367;-59
2022/04/08 03:04:05;;;;;;;2.53;0.87;;;;;;;8.31;95.56;94036.09;4332403;32;20316;-59
2022/04/08 03:06:31;;;;;;;2.90;1.10;;;;;;;8.39;94.83;94030.81;4333407;32;20261;-59
2022/04/08 03:08:56;;;;;;;1.00;0.80;;;;;;;8.38;94.69;94034.53;4337442;32;20274;-59
2022/04/08 03:11:26;;;;;;;1.90;1.03;;;;;;;8.32;95.37;94041.06;4334737;32;20251;-59
2022/04/08 03:13:51;;;;;;;3.23;1.30;;;;;;;8.28;94.23;94054.09;4349712;32;20227;-62
2022/04/08 03:16:17;;;;;;;1.13;1.00;;;;;;;8.17;94.64;94060.75;4316558;32;20303;-60
2022/04/08 03:18:46;;;;;;;3.13;0.90;;;;;;;7.94;95.45;94065.38;4325428;32;20208;-59
2022/04/08 03:21:12;;;;;;;2.27;1.23;;;;;;;8.14;95.39;94068.50;4332119;32;20467;-59
2022/04/08 03:23:40;;;;;;;4.23;1.03;;;;;;;8.10;95.35;94073.66;4352593;32;20301;-59
2022/04/08 03:26:07;;;;;;;4.90;1.37;;;;;;;7.98;95.66;94064.75;4337494;32;20293;-59
2022/04/08 03:28:34;;;;;;;5.40;1.30;;;;;;;7.86;95.98;94058.22;4334743;32;20328;-58
2022/04/08 03:31:01;;;;;;;0.90;0.77;;;;;;;7.97;94.85;94066.62;4338068;32;20290;-59
2022/04/08 03:33:43;;;;;;;4.47;1.47;;;;;;;8.01;94.75;94067.56;4258928;32;20290;-59
2022/04/08 03:36:09;;;;;;;3.13;1.60;;;;;;;7.94;95.01;94075.94;4337499;32;20290;-59
2022/04/08 03:38:35;;;;;;;3.03;1.40;;;;;;;7.99;94.50;94084.81;4345270;32;20338;-59
2022/04/08 03:41:01;;;;;;;4.13;1.20;;;;;;;7.99;92.95;94080.31;4345355;32;20213;-59
2022/04/08 03:43:28;;;;;;;4.33;1.13;;;;;;;7.73;93.58;94095.28;4344813;32;20328;-58
2022/04/08 03:45:58;;;;;;;4.83;1.47;;;;;;;7.65;94.26;94088.13;4340100;32;20185;-59
2022/04/08 03:48:24;;;;;;;5.83;2.37;;;;;;;7.59;93.80;94095.38;4354335;32;20291;-59
2022/04/08 03:50:51;;;;;;;3.77;1.40;;;;;;;7.50;94.75;94081.38;4344825;32;20300;-59
2022/04/08 03:53:16;;;;;;;5.70;1.87;;;;;;;7.72;95.17;94093.72;4303090;32;20193;-59
2022/04/08 03:55:42;;;;;;;3.43;1.33;;;;;;;7.57;95.16;94094.91;4360411;32;20414;-59
2022/04/08 03:58:10;;;;;;;3.20;1.10;;;;;;;7.64;95.64;94091.84;4328291;32;20197;-58
2022/04/08 04:00:40;;;;;;;6.37;1.60;;;;;;;7.67;95.82;94096.50;4330293;32;20282;-58
2022/04/08 04:03:07;;;;;;;2.20;1.30;;;;;;;7.56;95.96;94101.28;4355177;32;20292;-59
2022/04/08 04:05:34;;;;;;;4.17;1.10;;;;;;;7.62;95.70;94100.06;4335727;32;20282;-58
2022/04/08 04:08:02;;;;;;;3.10;1.20;;;;;;;7.59;96.14;94090.88;4337453;32;20325;-59
2022/04/08 04:10:30;;;;;;;3.00;1.20;;;;;;;7.75;94.72;94101.81;4335912;32;20277;-57
2022/04/08 04:12:56;;;;;;;2.07;0.80;;;;;;;7.69;93.72;94104.91;4343562;32;20273;-59
2022/04/08 04:15:22;;;;;;;3.13;1.03;;;;;;;7.58;92.87;94105.16;4348467;32;20369;-59
2022/04/08 04:17:50;;;;;;;1.53;0.93;;;;;;;7.70;93.55;94109.06;4326775;32;20304;-59
2022/04/08 04:20:17;;;;;;;3.23;0.87;;;;;;;7.76;92.12;94107.88;4337623;32;20281;-59
2022/04/08 04:22:43;;;;;;;1.57;0.90;;;;;;;7.72;92.49;94114.84;4331353;32;20353;-59
2022/04/08 04:25:10;;;;;;;4.53;0.80;;;;;;;7.65;92.30;94111.88;4334332;32;20286;-59
2022/04/08 04:27:39;;;;;;;6.67;1.17;;;;;;;7.77;91.84;94112.06;4314998;32;20299;-58
2022/04/08 04:30:08;;;;;;;4.67;1.10;;;;;;;7.56;91.97;94117.87;4332788;32;20283;-59
2022/04/08 04:32:37;;;;;;;1.73;0.83;;;;;;;7.54;92.62;94106.84;4355685;32;20354;-59
2022/04/08 04:35:07;;;;;;;3.63;0.70;;;;;;;7.67;92.82;94115.78;4349986;32;20309;-61
2022/04/08 04:37:34;;;;;;;1.23;0.83;;;;;;;7.76;91.73;94121.06;4338627;32;20328;-58
2022/04/08 04:40:04;;;;;;;3.43;0.90;;;;;;;7.82;90.87;94118.00;4345822;32;20294;-58
2022/04/08 04:42:31;;;;;;;1.87;0.83;;;;;;;7.74;90.83;94117.94;4353732;32;20289;-58
2022/04/08 04:44:57;;;;;;;3.47;1.20;;;;;;;7.80;90.71;94136.00;4337456;32;20321;-59
2022/04/08 04:47:23;;;;;;;2.40;1.10;;;;;;;7.83;90.58;94148.59;4316692;32;20344;-64
2022/04/08 04:49:51;;;;;;;1.80;1.13;;;;;;;7.79;90.53;94131.81;4321519;32;20232;-59
2022/04/08 04:52:20;;;;;;;2.73;1.27;;;;;;;7.81;90.65;94144.69;4338117;32;20298;-58
2022/04/08 04:54:46;;;;;;;4.73;1.30;;;;;;;7.77;90.73;94149.03;4363569;32;20334;-59
2022/04/08 04:57:12;;;;;;;2.90;1.10;;;;;;;7.80;90.66;94151.06;4356311;32;20368;-59
2022/04/08 04:59:39;;;;;;;1.80;0.80;;;;;;;7.95;90.43;94150.66;4330301;32;20256;-59
2022/04/08 05:02:05;;;;;;;1.40;0.97;;;;;;;7.84;90.38;94146.72;4330262;32;20293;-59
2022/04/08 05:04:32;;;;;;;3.43;1.00;;;;;;;7.89;89.52;94144.75;4333536;32;20292;-60
2022/04/08 05:06:58;;;;;;;3.60;1.00;;;;;;;7.80;90.52;94159.75;4329392;32;20365;-59
2022/04/08 05:09:27;;;;;;;1.23;0.97;;;;;;;7.82;91.18;94154.19;4337714;32;20313;-59
2022/04/08 05:11:55;;;;;;;4.63;1.40;;;;;;;7.83;91.22;94163.66;4350199;32;20277;-58
2022/04/08 05:14:24;;;;;;;1.63;1.00;;;;;;;7.75;92.17;94156.47;4348078;32;20281;-59
2022/04/08 05:16:51;;;;;;;3.67;1.07;;;;;;;7.70;92.30;94161.88;4276043;32;20293;-59
2022/04/08 05:19:17;;;;;;;3.57;1.33;;;;;;;7.78;91.23;94171.69;4298873;33;20294;-59
2022/04/08 05:21:44;;;;;;;4.57;1.00;;;;;;;7.57;91.84;94176.72;4361310;32;20285;-63
2022/04/08 05:24:11;;;;;;;1.73;0.60;;;;;;;7.75;91.83;94177.59;4300692;33;20298;-58
2022/04/08 05:26:40;;;;;;;3.57;1.23;;;;;;;7.74;92.17;94189.22;4329242;32;20319;-59
2022/04/08 05:29:07;;;;;;;4.30;1.73;;;;;;;7.82;91.50;94188.50;4302565;32;20365;-59
2022/04/08 05:31:36;;;;;;;3.97;0.97;;;;;;;7.80;92.05;94190.66;4308999;33;20294;-59
2022/04/08 05:34:03;;;;;;;2.57;1.00;;;;;;;7.83;92.56;94187.41;4334303;32;20299;-59
2022/04/08 05:36:30;;;;;;;1.37;0.83;;;;;;;7.88;92.36;94197.84;4330616;33;20504;-59
2022/04/08 05:38:57;;;;;;;3.47;1.17;;;;;;;7.77;91.95;94192.03;4326361;32;20282;-57
2022/04/08 05:41:26;;;;;;;4.00;1.40;;;;;;;7.69;92.44;94202.56;4311497;32;20296;-59
2022/04/08 05:43:53;;;;;;;2.73;1.00;;;;;;;7.80;92.35;94211.78;4319249;32;20301;-60
2022/04/08 05:46:19;;;;;;;5.70;1.23;;;;;;;7.67;92.65;94210.00;4338220;32;20293;-58
2022/04/08 05:48:45;;;;;;;5.03;0.90;;;;;;;7.69;92.31;94216.50;4356050;32;20376;-59
2022/04/08 05:51:12;;;;;;;3.70;1.63;;;;;;;7.76;92.24;94211.59;4338797;32;20268;-59
2022/04/08 05:53:39;;;;;;;4.73;1.30;;;;;;;7.79;92.59;94211.00;4326562;32;20282;-59
2022/04/08 05:56:05;;;;;;;6.00;1.47;;;;;;;7.63;92.59;94211.69;4336787;32;20295;-59
2022/04/08 05:58:32;;;;;;;4.73;1.83;;;;;;;7.56;93.68;94218.16;4323245;32;20304;-59
2022/04/08 06:01:08;;;;;;;1.83;1.20;;;;;;;7.69;93.10;94224.44;4337185;32;20300;-59
2022/04/08 06:03:34;;;;;;;2.00;0.93;;;;;;;7.67;93.47;94217.94;4321086;32;20353;-58
2022/04/08 06:06:04;;;;;;;2.97;1.20;;;;;;;7.68;92.70;94222.91;4321180;32;20304;-58
2022/04/08 06:08:37;;;;;;;2.53;1.33;;;;;;;7.75;92.64;94228.50;4307990;32;20286;-59
2022/04/08 06:11:30;;;;;;;3.53;1.07;;;;;;;7.73;93.19;94219.34;4319843;32;20331;-54
2022/04/08 06:13:58;;;;;;;37.60;5.73;;;;;;;8.05;94.62;94213.78;4322575;32;20310;-44
2022/04/08 06:16:25;;;;;;;6.83;1.90;;;;;;;10.25;99.71;94214.78;4339528;32;20308;-46
2022/04/08 06:18:50;;;;;;;5.20;1.30;;;;;;;11.34;87.95;94209.47;4344519;32;20286;-45
2022/04/08 06:21:18;;;;;;;15.47;4.77;;;;;;;12.26;78.94;94215.28;4361696;32;20339;-44
2022/04/08 06:23:46;;;;;;;18.67;4.53;;;;;;;13.22;80.06;94220.94;4328796;32;20383;-44
2022/04/08 06:26:14;;;;;;;5.10;2.97;;;;;;;13.97;76.43;94229.09;4297988;32;20479;-43
2022/04/08 06:28:46;;;;;;;9.47;2.70;;;;;;;14.19;71.50;94222.41;4301257;32;20197;-45
2022/04/08 06:31:13;;;;;;;1.57;1.17;;;;;;;14.38;69.64;94221.75;4315347;32;20270;-45
2022/04/08 06:33:42;;;;;;;5.03;1.27;;;;;;;14.22;67.12;94208.41;4326949;32;20208;-45
2022/04/08 06:36:08;;;;;;;3.17;1.20;;;;;;;14.31;66.00;94214.34;4287475;33;20198;-44
2022/04/08 06:38:38;;;;;;;1.90;1.00;;;;;;;14.21;65.99;94222.84;4354871;32;20254;-45
2022/04/08 06:41:06;;;;;;;3.40;1.37;;;;;;;14.10;65.71;94221.81;4315165;32;20236;-48
2022/04/08 06:43:39;;;;;;;2.03;1.20;;;;;;;14.15;65.60;94210.88;4304737;33;20198;-44
2022/04/08 06:46:08;;;;;;;2.60;1.37;;;;;;;14.18;65.20;94212.88;4324787;32;20211;-47
2022/04/08 06:48:35;;;;;;;2.23;1.20;;;;;;;14.10;65.45;94203.94;4322182;32;20364;-47
2022/04/08 06:51:05;;;;;;;2.60;1.33;;;;;;;14.15;65.21;94210.88;4315555;32;20193;-44
2022/04/08 06:53:35;;;;;;;2.20;1.20;;;;;;;14.15;65.09;94202.88;4345429;32;20212;-43
2022/04/08 06:56:01;;;;;;;3.00;1.23;;;;;;;14.19;64.76;94219.75;4324603;32;20189;-46
2022/04/08 06:58:28;;;;;;;3.80;1.60;;;;;;;14.09;64.94;94205.03;4310757;32;20211;-45
2022/04/08 07:00:54;;;;;;;5.10;1.17;;;;;;;14.03;64.81;94197.62;4352669;32;20227;-44
2022/04/08 07:03:20;;;;;;;2.03;1.17;;;;;;;14.01;64.97;94197.19;4347889;32;20193;-44
2022/04/08 07:05:45;;;;;;;2.47;1.13;;;;;;;13.98;65.20;94197.88;4348756;32;20190;-45
2022/04/08 07:08:11;;;;;;;2.43;0.80;;;;;;;13.97;65.22;94193.66;4346157;32;20180;-44
2022/04/08 07:10:40;;;;;;;0.70;0.70;;;;;;;13.98;65.23;94197.88;4340748;32;20275;-44
2022/04/08 07:13:09;;;;;;;3.00;1.13;;;;;;;13.50;66.06;94204.22;4328869;32;20201;-46
2022/04/08 07:15:34;;;;;;;2.67;1.13;;;;;;;13.74;65.81;94198.78;4315635;32;20190;-44
2022/04/08 07:18:02;;;;;;;1.87;1.00;;;;;;;13.82;65.43;94205.06;4348940;32;20227;-44
2022/04/08 07:20:28;;;;;;;3.13;1.17;;;;;;;13.71;65.62;94194.16;4344482;32;20216;-59
2022/04/08 07:22:53;;;;;;;1.70;1.03;;;;;;;12.81;68.01;94192.69;4356328;32;20244;-58
2022/04/08 07:25:19;;;;;;;1.60;1.30;;;;;;;11.29;75.23;94191.84;4356619;32;20193;-59
2022/04/08 07:28:03;;;;;;;1.43;0.90;;;;;;;10.70;78.59;94196.50;4359854;32;20219;-59
2022/04/08 07:30:28;;;;;;;2.63;1.83;;;;;;;10.17;82.20;94189.88;4360915;32;20199;-59
2022/04/08 07:32:54;;;;;;;1.20;1.10;;;;;;;9.84;83.98;94189.66;4360422;32;20181;-59
2022/04/08 07:35:22;;;;;;;1.97;1.00;;;;;;;9.60;85.47;94186.75;4360418;32;20174;-60
2022/04/08 07:37:47;;;;;;;3.60;0.90;;;;;;;9.06;87.39;94188.22;4349244;32;20247;-59
2022/04/08 07:40:13;;;;;;;3.53;1.17;;;;;;;9.13;88.55;94177.94;4373412;32;20273;-59
2022/04/08 07:42:39;;;;;;;1.70;1.00;;;;;;;9.27;88.09;94183.84;4365693;32;20189;-59
2022/04/08 07:45:06;;;;;;;4.27;1.20;;;;;;;9.09;89.00;94187.59;4368358;32;20299;-59
2022/04/08 07:47:32;;;;;;;2.17;1.13;;;;;;;9.14;90.02;94187.44;4360424;32;20332;-61
2022/04/08 07:50:02;;;;;;;2.83;1.37;;;;;;;8.98;89.80;94176.53;4360247;32;20295;-62
2022/04/08 07:52:28;;;;;;;1.23;0.77;;;;;;;9.02;90.28;94182.75;4360656;32;20186;-62
2022/04/08 07:54:55;;;;;;;1.67;1.00;;;;;;;8.88;91.02;94182.91;4363839;32;20316;-61
2022/04/08 07:57:21;;;;;;;2.10;1.00;;;;;;;8.91;90.29;94179.66;4362190;32;20193;-61
2022/04/08 07:59:46;;;;;;;1.57;1.00;;;;;;;9.02;90.51;94181.97;4356963;32;20340;-59
2022/04/08 08:02:12;;;;;;;2.40;1.60;;;;;;;9.17;89.96;94179.63;4361226;32;20359;-58
2022/04/08 08:04:38;;;;;;;3.63;1.13;;;;;;;8.86;90.83;94171.88;4360781;32;20200;-59
2022/04/08 08:07:04;;;;;;;3.93;1.23;;;;;;;9.13;89.09;94172.66;4360098;32;20193;-58
2022/04/08 08:09:29;;;;;;;3.50;1.17;;;;;;;9.32;88.50;94154.59;4342574;32;20206;-59
2022/04/08 08:11:54;;;;;;;2.20;1.23;;;;;;;9.28;88.35;94156.28;4356354;32;20250;-59
2022/04/08 08:14:20;;;;;;;2.77;1.00;;;;;;;9.35;88.25;94147.87;4348899;32;20189;-60
2022/04/08 08:16:45;;;;;;;4.50;1.20;;;;;;;9.27;89.52;94152.88;4352165;32;20185;-61
2022/04/08 08:19:11;;;;;;;2.17;0.80;;;;;;;9.30;88.71;94152.25;4337240;32;20216;-59
2022/04/08 08:21:37;;;;;;;1.10;0.70;;;;;;;9.32;88.29;94151.94;4357028;32;20223;-59
2022/04/08 08:24:02;;;;;;;3.60;1.20;;;;;;;9.26;88.14;94145.25;4358846;32;20246;-58
2022/04/08 08:26:29;;;;;;;1.43;0.80;;;;;;;9.43;88.03;94139.13;4363176;32;20209;-60
2022/04/08 08:28:55;;;;;;;2.07;0.90;;;;;;;9.40;87.34;94143.19;4334479;32;20184;-59
2022/04/08 08:31:21;;;;;;;2.27;1.10;;;;;;;9.41;87.55;94123.56;4342230;32;20324;-59
2022/04/08 08:33:46;;;;;;;1.47;0.83;;;;;;;9.35;87.64;94132.78;4358802;32;20324;-58
2022/04/08 08:36:11;;;;;;;1.53;0.80;;;;;;;9.43;88.11;94124.03;4358809;32;20303;-60
2022/04/08 08:38:37;;;;;;;2.10;1.10;;;;;;;9.27;87.98;94126.41;4358744;32;20193;-62
2022/04/08 08:41:07;;;;;;;2.20;1.10;;;;;;;9.21;87.79;94126.88;4370728;32;20189;-60
2022/04/08 08:43:33;;;;;;;3.70;1.47;;;;;;;9.32;88.16;94128.12;4359736;32;20211;-58
2022/04/08 08:46:05;;;;;;;2.43;0.90;;;;;;;9.40;88.40;94127.31;4353345;32;20274;-59
2022/04/08 08:48:35;;;;;;;1.57;1.00;;;;;;;9.49;87.00;94128.06;4359886;32;20201;-59
2022/04/08 08:51:05;;;;;;;2.20;0.90;;;;;;;9.24;88.27;94134.97;4354546;32;20335;-59
2022/04/08 08:53:32;;;;;;;3.20;1.30;;;;;;;9.47;87.16;94129.47;4358331;32;20293;-58
2022/04/08 08:55:57;;;;;;;1.07;0.97;;;;;;;9.62;87.63;94116.50;4359049;32;20291;-58
2022/04/08 08:58:23;;;;;;;1.53;0.90;;;;;;;9.35;87.42;94111.63;4359248;32;20277;-60
2022/04/08 09:00:49;;;;;;;3.13;1.10;;;;;;;9.37;88.54;94106.75;4338919;32;20248;-60
2022/04/08 09:03:15;;;;;;;1.00;0.90;;;;;;;9.37;88.80;94103.34;4352797;32;20193;-61
2022/04/08 09:05:42;;;;;;;1.30;1.00;;;;;;;9.48;88.21;94094.75;4360356;32;20188;-57
2022/04/08 09:08:08;;;;;;;3.20;1.10;;;;;;;9.78;87.72;94081.56;4359598;32;20216;-59
2022/04/08 09:10:52;;;;;;;1.17;1.03;;;;;;;9.61;87.26;94088.47;4365677;32;20365;-58
2022/04/08 09:13:21;;;;;;;4.20;0.70;;;;;;;9.63;87.39;94088.94;4359852;32;20323;-54
2022/04/08 09:16:14;;;;;;;0.97;0.87;;;;;;;9.54;86.37;94082.91;4365528;32;20273;-60
2022/04/08 09:18:42;;;;;;;4.30;1.23;;;;;;;9.54;85.90;94082.91;4360073;32;20278;-56
2022/04/08 09:21:07;;;;;;;1.00;0.80;;;;;;;9.38;86.39;94079.19;4345792;32;20269;-59
2022/04/08 09:23:33;;;;;;;2.83;1.03;;;;;;;9.89;85.79;94072.16;4360007;32;20331;-54
2022/04/08 09:26:01;;;;;;;2.20;1.10;;;;;;;10.04;85.07;94068.97;4373373;32;20185;-61
2022/04/08 09:28:33;;;;;;;0.80;0.80;;;;;;;10.08;86.05;94061.94;4347349;32;20285;-57
2022/04/08 09:31:00;;;;;;;2.27;0.80;;;;;;;10.30;83.42;94051.06;4343413;32;20273;-60
2022/04/08 09:33:26;;;;;;;1.80;0.93;;;;;;;10.24;83.12;94054.22;4361603;32;20270;-58
2022/04/08 09:35:54;;;;;;;1.90;0.80;;;;;;;10.08;84.16;94045.25;4358207;32;20291;-60
2022/04/08 09:38:22;;;;;;;1.70;0.87;;;;;;;9.70;83.36;94032.06;4362807;32;20300;-59
2022/04/08 09:40:47;;;;;;;1.97;0.90;;;;;;;10.07;84.35;94023.28;4372985;32;20280;-60
2022/04/08 09:43:13;;;;;;;4.17;0.97;;;;;;;9.91;85.36;94011.69;4364675;32;20320;-61
2022/04/08 09:45:39;;;;;;;1.17;0.93;;;;;;;10.19;85.08;94007.47;4363968;32;20208;-60
2022/04/08 09:48:07;;;;;;;0.97;0.87;;;;;;;10.28;82.62;94004.78;4361715;32;20215;-59
2022/04/08 09:50:34;;;;;;;4.00;0.90;;;;;;;10.54;81.51;93986.78;4370611;32;20196;-60
2022/04/08 09:53:02;;;;;;;3.10;1.00;;;;;;;10.48;81.58;93989.97;4365830;32;20352;-61
2022/04/08 09:55:28;;;;;;;1.73;0.90;;;;;;;10.54;80.66;93986.78;4364330;32;20359;-61
2022/04/08 09:58:04;;;;;;;0.80;0.80;;;;;;;10.37;80.35;93992.25;4363930;32;20279;-61
2022/04/08 10:00:31;;;;;;;1.13;0.80;;;;;;;10.55;81.46;93987.56;4360616;32;20176;-61
2022/04/08 10:03:01;;;;;;;1.23;0.97;;;;;;;10.36;80.93;93974.00;4357387;32;20216;-59
2022/04/08 10:05:26;;;;;;;1.00;0.90;;;;;;;10.52;82.24;93967.78;4358939;32;20252;-59
2022/04/08 10:07:55;;;;;;;0.90;0.80;;;;;;;10.80;82.01;93964.56;4351588;32;20189;-62
2022/04/08 10:10:29;;;;;;;1.43;1.20;;;;;;;11.15;80.81;93957.78;4365551;32;20257;-59
2022/04/08 10:13:03;;;;;;;1.07;0.97;;;;;;;11.17;81.16;93952.91;4359254;32;20227;-58
2022/04/08 10:15:37;;;;;;;0.97;0.93;;;;;;;11.15;80.88;93947.16;4367603;32;20267;-59
2022/04/08 10:18:04;;;;;;;1.20;0.97;;;;;;;11.20;79.12;93939.00;4339964;32;20185;-58
2022/04/08 10:20:31;;;;;;;1.73;1.20;;;;;;;11.13;80.14;93943.28;4343608;32;20194;-59
2022/04/08 10:23:10;;;;;;;2.33;1.20;;;;;;;11.02;81.01;93943.69;4350974;32;20238;-58
2022/04/08 10:25:47;;;;;;;1.53;1.43;;;;;;;10.99;83.71;93955.00;4364967;32;20188;-59
2022/04/08 10:28:12;;;;;;;1.33;1.20;;;;;;;11.23;83.73;93940.19;4350039;32;20261;-60
2022/04/08 10:30:46;;;;;;;1.20;1.10;;;;;;;11.14;84.29;93936.88;4364789;32;20220;-61
2022/04/08 10:33:13;;;;;;;1.20;1.10;;;;;;;11.29;82.94;93923.72;4364960;32;20193;-59
2022/04/08 10:35:51;;;;;;;1.17;0.93;;;;;;;11.26;83.09;93910.31;4362606;32;20197;-58
2022/04/08 10:38:16;;;;;;;1.17;1.07;;;;;;;11.48;82.12;93904.56;4365295;32;20226;-62
2022/04/08 10:40:55;;;;;;;1.37;1.07;;;;;;;11.49;82.25;93910.66;4363878;32;20279;-58
2022/04/08 10:43:21;;;;;;;1.20;1.10;;;;;;;11.20;83.75;93896.50;4349148;32;20189;-61
2022/04/08 10:45:58;;;;;;;1.10;1.00;;;;;;;11.19;83.85;93892.31;4362230;32;20180;-59
2022/04/08 10:48:31;;;;;;;1.97;1.33;;;;;;;11.15;84.09;93874.72;4335990;32;20203;-58
2022/04/08 10:51:14;;;;;;;2.87;1.13;;;;;;;11.28;84.04;93876.25;4358598;32;20197;-58
2022/04/08 10:53:42;;;;;;;1.37;1.27;;;;;;;11.10;85.41;93872.28;4355143;32;20202;-58
2022/04/08 10:56:10;;;;;;;1.27;1.17;;;;;;;11.24;84.90;93859.44;4362206;32;20180;-58
2022/04/08 10:58:46;;;;;;;1.20;1.10;;;;;;;11.47;83.85;93860.53;4361213;32;20200;-58
2022/04/08 11:01:21;;;;;;;3.03;1.47;;;;;;;11.70;83.52;93845.66;4373357;32;20302;-58
2022/04/08 11:03:57;;;;;;;3.30;1.20;;;;;;;11.25;86.34;93845.06;4353460;32;20227;-57
2022/04/08 11:06:25;;;;;;;1.30;1.20;;;;;;;11.12;86.85;93840.88;4350466;32;20251;-60
2022/04/08 11:08:50;;;;;;;1.77;1.10;;;;;;;11.23;87.34;93834.78;4349476;32;20188;-60
2022/04/08 11:11:16;;;;;;;1.57;1.43;;;;;;;11.46;86.74;93829.75;4354946;32;20197;-58
2022/04/08 11:13:42;;;;;;;1.40;1.30;;;;;;;11.20;86.33;93816.09;4349462;32;20236;-59
2022/04/08 11:16:08;;;;;;;1.63;1.53;;;;;;;11.32;87.77;93813.44;4363015;32;20259;-59
2022/04/08 11:18:33;;;;;;;2.10;1.57;;;;;;;11.36;88.02;93809.00;4360843;32;20193;-57
2022/04/08 11:20:59;;;;;;;1.60;1.50;;;;;;;11.53;87.95;93800.78;4362513;32;20181;-61
2022/04/08 11:23:26;;;;;;;2.03;1.50;;;;;;;11.35;88.21;93786.97;4358069;32;20252;-60
2022/04/08 11:25:52;;;;;;;2.00;1.40;;;;;;;11.49;88.49;93791.91;4346781;32;20188;-57
2022/04/08 11:28:23;;;;;;;2.27;1.83;;;;;;;11.30;90.19;93786.44;4355553;32;20296;-60
2022/04/08 11:31:16;;;;;;;3.30;1.70;;;;;;;11.52;89.52;93785.16;4352680;32;20232;-61
2022/04/08 11:33:43;;;;;;;2.90;1.90;;;;;;;11.64;88.94;93771.84;4347299;32;20225;-59
2022/04/08 11:36:11;;;;;;;1.30;1.20;;;;;;;11.59;89.39;93770.22;4318481;32;20308;-59
2022/04/08 11:38:38;;;;;;;1.87;1.40;;;;;;;11.27;90.61;93763.22;4327847;32;20297;-62
2022/04/08 11:41:18;;;;;;;1.40;1.30;;;;;;;11.29;91.04;93755.69;4353126;32;20189;-59
2022/04/08 11:43:47;;;;;;;1.27;1.10;;;;;;;11.44;91.35;93747.00;4323294;32;20290;-59